Terminal Aerodrome Forecast
Issued by NWS

Home | Current Version | Previous Version | Graphics & Text | Print | Product List | Glossary On
Versions: 1 2 3 4 5 6 7 8 9 10 11 12 13 14
679
FTUS42 KMHX 162334
TAFISO
TAF
KISO 162334Z 1700/1724 VRB04KT P6SM SCT040 SCT060
     FM170700 00000KT 5SM BR SCT003 BKN250
     FM170900 00000KT 2SM BR BKN003 BKN090
     FM171100 VRB03KT 1/2SM FG BKN003 BKN080
     FM171300 VRB04KT 2SM BR BKN070
     FM171400 02005KT P6SM BKN070
     FM171900 03010KT P6SM BKN060
      AMD LTD TO CLD VIS AND WIND=

USA.gov is the U.S. government's official web portal to all federal, state and local government web resources and services.